Map

Track Data

SID SEASON NUMBER BASIN SUBBASIN NAME ISO_TIME NATURE LAT LON WMO_WIND WMO_PRES WMO_AGENCY TRACK_TYPE DIST2LAND LANDFALL IFLAG USA_AGENCY USA_ATCF_ID USA_LAT USA_LON USA_RECORD USA_STATUS USA_WIND USA_PRES USA_SSHS USA_R34_NE USA_R34_SE USA_R34_SW USA_R34_NW USA_R50_NE USA_R50_SE USA_R50_SW USA_R50_NW USA_R64_NE USA_R64_SE USA_R64_SW USA_R64_NW USA_POCI USA_ROCI USA_RMW USA_EYE TOKYO_LAT TOKYO_LON TOKYO_GRADE TOKYO_WIND TOKYO_PRES TOKYO_R50_DIR TOKYO_R50_LONG TOKYO_R50_SHORT TOKYO_R30_DIR TOKYO_R30_LONG TOKYO_R30_SHORT TOKYO_LAND CMA_LAT CMA_LON CMA_CAT CMA_WIND CMA_PRES HKO_LAT HKO_LON HKO_CAT HKO_WIND HKO_PRES NEWDELHI_LAT NEWDELHI_LON NEWDELHI_GRADE NEWDELHI_WIND NEWDELHI_PRES NEWDELHI_CI NEWDELHI_DP NEWDELHI_POCI REUNION_LAT REUNION_LON REUNION_TYPE REUNION_WIND REUNION_PRES REUNION_TNUM REUNION_CI REUNION_RMW REUNION_R34_NE REUNION_R34_SE REUNION_R34_SW REUNION_R34_NW REUNION_R50_NE REUNION_R50_SE REUNION_R50_SW REUNION_R50_NW REUNION_R64_NE REUNION_R64_SE REUNION_R64_SW REUNION_R64_NW BOM_LAT BOM_LON BOM_TYPE BOM_WIND BOM_PRES BOM_TNUM BOM_CI BOM_RMW BOM_R34_NE BOM_R34_SE BOM_R34_SW BOM_R34_NW BOM_R50_NE BOM_R50_SE BOM_R50_SW BOM_R50_NW BOM_R64_NE BOM_R64_SE BOM_R64_SW BOM_R64_NW BOM_ROCI BOM_POCI BOM_EYE BOM_POS_METHOD BOM_PRES_METHOD NADI_LAT NADI_LON NADI_CAT NADI_WIND NADI_PRES WELLINGTON_LAT WELLINGTON_LON WELLINGTON_WIND WELLINGTON_PRES DS824_LAT DS824_LON DS824_STAGE DS824_WIND DS824_PRES TD9636_LAT TD9636_LON TD9636_STAGE TD9636_WIND TD9636_PRES TD9635_LAT TD9635_LON TD9635_WIND TD9635_PRES TD9635_ROCI NEUMANN_LAT NEUMANN_LON NEUMANN_CLASS NEUMANN_WIND NEUMANN_PRES MLC_LAT MLC_LON MLC_CLASS MLC_WIND MLC_PRES USA_GUST BOM_GUST BOM_GUST_PER REUNION_GUST REUNION_GUST_PER USA_SEAHGT USA_SEARAD_NE USA_SEARAD_SE USA_SEARAD_SW USA_SEARAD_NW STORM_SPEED STORM_DIR
1985202N13226 1985 57 EP MM IGNACIO 1985-07-21 00:00:00 TS 13.2000 -134.400 25 hurdat_epa main 2286 2235 O_________O___ hurdat_epa EP091985 13.2000 -134.400 TD 25 -1 13.2000 -134.400 1 25 11 270
1985202N13226 1985 57 EP MM IGNACIO 1985-07-21 03:00:00 TS 13.1980 -134.947 main 2235 2175 P_________P___ EP091985 13.1878 -134.958 TD 30 -1 13.2287 -134.916 1 28 11 271
1985202N13226 1985 57 EP MM IGNACIO 1985-07-21 06:00:00 TS 13.2139 -135.484 35 hurdat_epa main 2175 2120 O_________P___ hurdat_epa EP091985 13.2000 -135.500 TS 35 0 13.2556 -135.435 1 32 10 273
1985202N13226 1985 57 EP MM IGNACIO 1985-07-21 09:00:00 TS 13.2573 -136.002 main 2120 2070 P_________P___ EP091985 13.2499 -136.015 TS 37 0 13.2796 -135.962 1 36 10 275
1985202N13226 1985 57 EP MM IGNACIO 1985-07-21 12:00:00 TS 13.3000 -136.500 40 hurdat_epa main 2070 2030 O_________O___ hurdat_epa EP091985 13.3000 -136.500 TS 40 0 13.3000 -136.500 2 40 9 273
1985202N13226 1985 57 EP MM IGNACIO 1985-07-21 15:00:00 TS 13.3040 -136.964 main 2020 1980 P_________P___ EP091985 13.2997 -136.935 TS 45 0 13.3169 -137.049 2 45 9 271
1985202N13226 1985 57 EP MM IGNACIO 1985-07-21 18:00:00 TS 13.3088 -137.449 50 hurdat_epa main 1980 1920 O_________P___ hurdat_epa EP091985 13.3000 -137.400 TS 50 0 13.3351 -137.595 2 50 10 272
1985202N13226 1985 57 EP MM IGNACIO 1985-07-21 21:00:00 TS 13.3471 -138.024 main 1920 1856 P_________P___ EP091985 13.3426 -137.992 TS 55 0 13.3607 -138.118 2 55 11 275
1985202N13226 1985 57 EP MM IGNACIO 1985-07-22 00:00:00 TS 13.4000 -138.600 60 hurdat_epa main 1856 1807 O_________O___ hurdat_epa EP091985 13.4000 -138.600 TS 60 0 13.4000 -138.600 2 60 11 275
1985202N13226 1985 57 EP MM IGNACIO 1985-07-22 03:00:00 TS 13.4457 -139.120 main 1807 1763 P_________P___ EP091985 13.4425 -139.153 TS 60 0 13.4554 -139.021 2 60 9 277
1985202N13226 1985 57 EP MM IGNACIO 1985-07-22 06:00:00 TS 13.5064 -139.550 60 hurdat_epa main 1753 1729 O_________P___ hurdat_epa EP091985 13.5000 -139.600 TS 60 0 13.5256 -139.401 2 60 7 282
1985202N13226 1985 57 EP MM IGNACIO 1985-07-22 09:00:00 TS 13.5962 -139.843 main 1729 1694 P_________P___ EP091985 13.5923 -139.873 TS 60 0 13.6081 -139.755 2 60 6 290
1985202N13226 1985 57 EP CP IGNACIO 1985-07-22 12:00:00 TS 13.7059 -140.112 60 hurdat_epa main 1694 1660 O_________O___ hurdat_epa EP091985 13.7000 -140.100 TS 60 0 13.7000 -140.100 2 60 6 290
1985202N13226 1985 57 EP CP IGNACIO 1985-07-22 15:00:00 TS 13.8054 -140.441 main 1660 1616 P_________P___ EP091985 13.7925 -140.428 TS 67 1 13.7893 -140.444 2 67 7 287
1985202N13226 1985 57 EP CP IGNACIO 1985-07-22 18:00:00 TS 13.9158 -140.800 75 hurdat_epa main 1616 1572 O_________O___ hurdat_epa EP091985 13.9000 -140.800 HU 75 1 13.9000 -140.800 3 75 8 288
1985202N13226 1985 57 EP CP IGNACIO 1985-07-22 21:00:00 TS 14.0483 -141.192 main 1572 1524 P_________P___ EP091985 14.0500 -141.192 HU 82 1 14.0492 -141.197 3 82 8 289
1985202N13226 1985 57 EP CP IGNACIO 1985-07-23 00:00:00 TS 14.1800 -141.600 90 hurdat_epa main 1524 1480 O_________O___ hurdat_epa EP091985 14.2000 -141.600 HU 90 2 14.2000 -141.600 4 90 8 288
1985202N13226 1985 57 EP CP IGNACIO 1985-07-23 03:00:00 TS 14.2948 -141.993 main 1480 1446 P_________P___ EP091985 14.3150 -142.015 HU 95 2 14.2939 -141.963 4 95 8 286
1985202N13226 1985 57 EP CP IGNACIO 1985-07-23 06:00:00 TS 14.3920 -142.361 100 hurdat_epa main 1436 1402 O_________P___ hurdat_epa EP091985 14.4000 -142.400 HU 100 3 14.3598 -142.307 4 100 7 284
1985202N13226 1985 57 EP CP IGNACIO 1985-07-23 09:00:00 TS 14.4611 -142.680 main 1402 1373 P_________P___ EP091985 14.4423 -142.700 HU 105 3 14.4208 -142.648 4 105 6 283
1985202N13226 1985 57 EP CP IGNACIO 1985-07-23 12:00:00 TS 14.5400 -143.000 110 hurdat_epa main 1373 1325 O_________O___ hurdat_epa EP091985 14.5000 -143.000 HU 110 3 14.5000 -143.000 4 110 7 287
1985202N13226 1985 57 EP CP IGNACIO 1985-07-23 15:00:00 TS 14.6697 -143.373 main 1325 1291 P_________P___ EP091985 14.6350 -143.385 HU 112 3 14.6363 -143.373 4 111 8 290
1985202N13226 1985 57 EP CP IGNACIO 1985-07-23 18:00:00 TS 14.8184 -143.772 115 hurdat_epa main 1281 1232 O_________P___ hurdat_epa EP091985 14.8000 -143.800 HU 115 4 14.7921 -143.762 4 112 8 290
1985202N13226 1985 57 EP CP IGNACIO 1985-07-23 21:00:00 TS 14.9588 -144.175 main 1232 1189 P_________P___ EP091985 14.9499 -144.193 HU 115 4 14.9519 -144.170 4 113 8 289
1985202N13226 1985 57 EP CP IGNACIO 1985-07-24 00:00:00 TS 15.1000 -144.600 115 hurdat_epa main 1189 1145 O_________O___ hurdat_epa EP091985 15.1000 -144.600 HU 115 4 15.1000 -144.600 4 115 9 289
1985202N13226 1985 57 EP CP IGNACIO 1985-07-24 03:00:00 TS 15.2511 -145.052 main 1131 1087 P_________P___ EP091985 15.2649 -145.035 HU 115 4 15.2183 -145.054 4 115 9 288
1985202N13226 1985 57 EP CP IGNACIO 1985-07-24 06:00:00 TS 15.3845 -145.526 115 hurdat_epa main 1087 1034 O_________P___ hurdat_epa EP091985 15.4000 -145.500 HU 115 4 15.3224 -145.528 4 115 10 284
1985202N13226 1985 57 EP CP IGNACIO 1985-07-24 09:00:00 TS 15.4750 -146.013 main 1034 987 P_________P___ EP091985 15.4650 -146.000 HU 115 4 15.4152 -146.013 4 115 10 279
1985202N13226 1985 57 EP CP IGNACIO 1985-07-24 12:00:00 TS 15.5400 -146.500 115 hurdat_epa main 987 944 O_________O___ hurdat_epa EP091985 15.5000 -146.500 HU 115 4 15.5000 -146.500 4 115 9 278
1985202N13226 1985 57 EP CP IGNACIO 1985-07-24 15:00:00 TS 15.5963 -146.963 main 934 892 P_________P___ EP091985 15.5423 -146.950 HU 107 3 15.5898 -146.963 4 108 9 277
1985202N13226 1985 57 EP CP IGNACIO 1985-07-24 18:00:00 TS 15.6544 -147.426 100 hurdat_epa main 892 845 O_________P___ hurdat_epa EP091985 15.6000 -147.400 HU 100 3 15.6718 -147.428 4 102 9 279
1985202N13226 1985 57 EP CP IGNACIO 1985-07-24 21:00:00 TS 15.7384 -147.899 main 845 794 P_________P___ EP091985 15.6999 -147.885 HU 95 2 15.7429 -147.903 4 96 10 280
1985202N13226 1985 57 EP CP IGNACIO 1985-07-25 00:00:00 TS 15.8200 -148.400 90 hurdat_epa main 794 743 O_________O___ hurdat_epa EP091985 15.8000 -148.400 HU 90 2 15.8000 -148.400 4 90 10 278
1985202N13226 1985 57 EP CP IGNACIO 1985-07-25 03:00:00 TS 15.8822 -148.947 main 743 690 P_________P___ EP091985 15.8649 -148.943 HU 90 2 15.8513 -148.920 4 90 11 275
1985202N13226 1985 57 EP CP IGNACIO 1985-07-25 06:00:00 TS 15.9174 -149.512 90 hurdat_epa main 690 648 O_________P___ hurdat_epa EP091985 15.9000 -149.500 HU 90 2 15.8870 -149.462 4 90 11 272
1985202N13226 1985 57 EP CP IGNACIO 1985-07-25 09:00:00 TS 15.9227 -150.057 main 640 600 P_________P___ EP091985 15.9147 -150.035 HU 90 2 15.9043 -150.023 4 90 11 269
1985202N13226 1985 57 EP CP IGNACIO 1985-07-25 12:00:00 TS 15.9000 -150.620 90 hurdat_epa main 600 554 O_________O___ hurdat_epa EP091985 15.9000 -150.600 HU 90 2 15.9000 -150.600 4 90 11 267
1985202N13226 1985 57 EP CP IGNACIO 1985-07-25 15:00:00 TS 15.8619 -151.236 main 554 518 P_________P___ EP091985 15.8576 -151.250 HU 85 2 15.8794 -151.186 4 83 12 266
1985202N13226 1985 57 EP CP IGNACIO 1985-07-25 18:00:00 TS 15.8074 -151.857 80 hurdat_epa main 511 478 O_________P___ hurdat_epa EP091985 15.8000 -151.900 HU 80 1 15.8371 -151.785 4 77 12 264
1985202N13226 1985 57 EP CP IGNACIO 1985-07-25 21:00:00 TS 15.7480 -152.430 main 488 455 P_________P___ EP091985 15.7496 -152.450 HU 72 1 15.7762 -152.392 4 71 11 263
1985202N13226 1985 57 EP CP IGNACIO 1985-07-26 00:00:00 TS 15.6800 -153.000 65 hurdat_epa main 455 431 O_________O___ hurdat_epa EP091985 15.7000 -153.000 HU 65 1 15.7000 -153.000 4 65 11 263
1985202N13226 1985 57 EP CP IGNACIO 1985-07-26 03:00:00 TS 15.6180 -153.607 main 431 406 P_________P___ EP091985 15.6651 -153.650 HU 57 0 15.6377 -153.571 4 61 12 263
1985202N13226 1985 57 EP CP IGNACIO 1985-07-26 06:00:00 TS 15.5317 -154.209 50 hurdat_epa main 412 398 O_________P___ hurdat_epa EP091985 15.6000 -154.300 TS 50 0 15.5584 -154.147 4 57 11 259
1985202N13226 1985 57 EP CP IGNACIO 1985-07-26 09:00:00 TS 15.4046 -154.742 main 405 400 P_________P___ EP091985 15.4720 -154.835 TS 50 0 15.4500 -154.749 4 53 11 255
1985202N13226 1985 57 EP CP IGNACIO 1985-07-26 12:00:00 TS 15.2400 -155.320 50 hurdat_epa main 416 414 O_________O___ hurdat_epa EP091985 15.3000 -155.400 TS 50 0 15.3000 -155.400 2 50 13 254
1985202N13226 1985 57 EP CP IGNACIO 1985-07-26 15:00:00 TS 15.0564 -156.037 main 426 426 P_________P___ EP091985 15.1224 -156.112 TS 45 0 15.0999 -156.115 2 43 15 254
1985202N13226 1985 57 EP CP IGNACIO 1985-07-26 18:00:00 TS 14.8316 -156.836 40 hurdat_epa main 473 473 O_________P___ hurdat_epa EP091985 14.9000 -156.900 TS 40 0 14.8580 -156.882 2 37 17 252
1985202N13226 1985 57 EP CP IGNACIO 1985-07-26 21:00:00 TS 14.5598 -157.664 main 526 526 P_________P___ EP091985 14.6180 -157.700 TS 32 -1 14.5870 -157.683 2 31 17 250
1985202N13226 1985 57 EP CP IGNACIO 1985-07-27 00:00:00 TS 14.2600 -158.500 25 hurdat_epa main 595 O_________O___ hurdat_epa EP091985 14.3000 -158.500 TD 25 -1 14.3000 -158.500 1 25 17 250

About IBTrACS Database

This database is a web-friendly format of International Best Track Archive for Climate Stewardship (IBTrACS), a global best track data archive curated by NOAA dating back to 1842.

Updated: 2021-12-03